Time;durP1;ratioP1;P1;durP2;ratioP2;P2;SDS_P1;SDS_P2;PMS_P1;PMS_P2;Temp;Humidity;BMP_temperature;BMP_pressure;BME280_temperature;BME280_humidity;BME280_pressure;Samples;Min_cycle;Max_cycle;Signal;HPM_P1;HPM_P2
2023/01/26 00:02:08;;;;;;;33.90;3.95;;;2.30;99.90;;;;;;5089336;28;20040;-63
2023/01/26 00:04:35;;;;;;;25.77;5.15;;;2.20;99.90;;;;;;5075416;28;20051;-61
2023/01/26 00:07:03;;;;;;;27.88;4.28;;;2.30;99.90;;;;;;5089824;28;20055;-61
2023/01/26 00:09:31;;;;;;;22.80;5.50;;;2.30;99.90;;;;;;5096991;28;20031;-62
2023/01/26 00:11:59;;;;;;;24.88;4.85;;;2.40;99.90;;;;;;5088510;28;20055;-58
2023/01/26 00:14:26;;;;;;;27.27;5.60;;;2.40;99.90;;;;;;5092991;28;20054;-58
2023/01/26 00:16:54;;;;;;;28.42;3.85;;;2.30;99.90;;;;;;5089356;28;20039;-58
2023/01/26 00:19:22;;;;;;;31.52;4.70;;;2.30;99.90;;;;;;5095074;28;20376;-59
2023/01/26 00:21:49;;;;;;;39.85;6.03;;;2.30;99.90;;;;;;5092983;28;20051;-58
2023/01/26 00:24:17;;;;;;;17.30;5.28;;;2.30;99.90;;;;;;5097457;27;20051;-61
2023/01/26 00:26:45;;;;;;;39.80;5.72;;;2.30;99.90;;;;;;5093041;28;20044;-59
2023/01/26 00:29:13;;;;;;;28.15;5.13;;;2.30;99.90;;;;;;5095219;28;20465;-58
2023/01/26 00:31:41;;;;;;;31.40;6.22;;;2.30;99.90;;;;;;5093445;28;20510;-57
2023/01/26 00:34:11;;;;;;;37.03;5.85;;;2.30;99.90;;;;;;5097087;27;20067;-59
2023/01/26 00:36:41;;;;;;;31.52;6.50;;;2.20;99.90;;;;;;5077500;28;20149;-57
2023/01/26 00:39:09;;;;;;;31.23;6.00;;;2.20;99.90;;;;;;5082168;28;20040;-58
2023/01/26 00:44:29;;;;;;;37.78;7.53;;;2.20;99.90;;;;;;5079262;28;20044;-59
2023/01/26 00:47:00;;;;;;;29.17;6.18;;;2.20;99.90;;;;;;5091994;28;20044;-59
2023/01/26 00:49:28;;;;;;;30.13;7.00;;;2.10;99.90;;;;;;5098671;27;20608;-61
2023/01/26 00:51:55;;;;;;;24.35;6.05;;;2.10;99.90;;;;;;5092538;27;20052;-58
2023/01/26 00:54:23;;;;;;;25.48;6.15;;;2.00;99.90;;;;;;5098012;28;20048;-58
2023/01/26 00:56:53;;;;;;;25.77;7.05;;;1.90;99.90;;;;;;5077648;28;20411;-58
2023/01/26 00:59:21;;;;;;;32.13;6.32;;;1.90;99.90;;;;;;5079571;28;20040;-56
2023/01/26 01:01:52;;;;;;;32.90;6.68;;;1.90;99.90;;;;;;5091072;28;20780;-56
2023/01/26 01:04:20;;;;;;;35.88;6.65;;;1.90;99.90;;;;;;5075076;28;20044;-62
2023/01/26 01:06:51;;;;;;;19.95;4.95;;;1.80;99.90;;;;;;5073515;28;20044;-62
2023/01/26 01:09:20;;;;;;;27.05;6.43;;;1.70;99.90;;;;;;5082360;28;20044;-58
2023/01/26 01:11:50;;;;;;;38.78;7.57;;;1.80;99.90;;;;;;5089944;28;20392;-58
2023/01/26 01:14:18;;;;;;;38.58;8.30;;;1.70;99.90;;;;;;5075991;28;20498;-58
2023/01/26 01:16:46;;;;;;;33.33;8.20;;;1.70;99.90;;;;;;5093866;28;20043;-59
2023/01/26 01:19:16;;;;;;;35.20;8.13;;;1.70;99.90;;;;;;5078681;28;20036;-59
2023/01/26 01:21:47;;;;;;;31.42;8.68;;;1.70;99.90;;;;;;5076263;28;20047;-57
2023/01/26 01:24:15;;;;;;;43.33;9.68;;;1.70;99.90;;;;;;5075588;28;20032;-57
2023/01/26 01:26:42;;;;;;;33.33;9.27;;;1.70;99.90;;;;;;5076939;28;20502;-58
2023/01/26 01:29:14;;;;;;;39.05;9.15;;;1.70;99.90;;;;;;5075253;28;20051;-58
2023/01/26 01:31:42;;;;;;;63.05;11.18;;;1.70;99.90;;;;;;5072164;28;20059;-58
2023/01/26 01:34:12;;;;;;;37.15;9.73;;;1.60;99.90;;;;;;5093454;28;20050;-57
2023/01/26 01:36:40;;;;;;;48.05;10.88;;;1.60;99.90;;;;;;5091832;27;20054;-58
2023/01/26 01:39:08;;;;;;;39.20;9.20;;;1.60;99.90;;;;;;5094321;28;20410;-58
2023/01/26 01:41:35;;;;;;;49.90;9.68;;;1.60;99.90;;;;;;5070570;28;20059;-57
2023/01/26 01:44:24;;;;;;;43.33;10.38;;;1.60;99.90;;;;;;5081141;28;20054;-57
2023/01/26 01:47:05;;;;;;;48.92;8.98;;;1.60;99.90;;;;;;5094967;28;20047;-58
2023/01/26 01:49:41;;;;;;;40.78;8.98;;;1.60;99.90;;;;;;5097338;27;20040;-60
2023/01/26 01:52:16;;;;;;;33.65;9.63;;;1.50;99.90;;;;;;5088195;28;20051;-60
2023/01/26 01:54:53;;;;;;;28.25;8.02;;;1.60;99.90;;;;;;5095402;28;20041;-61
2023/01/26 01:57:30;;;;;;;33.20;9.27;;;1.60;99.90;;;;;;5092961;28;20063;-60
2023/01/26 02:00:08;;;;;;;30.60;9.50;;;1.50;99.90;;;;;;5071513;28;20052;-62
2023/01/26 02:02:43;;;;;;;29.83;9.70;;;1.50;99.90;;;;;;5093602;27;20056;-62
2023/01/26 02:05:31;;;;;;;48.50;9.95;;;1.50;99.90;;;;;;5091267;27;20047;-59
2023/01/26 02:08:00;;;;;;;26.33;8.55;;;1.40;99.90;;;;;;5092973;28;20047;-63
2023/01/26 02:10:29;;;;;;;31.95;8.60;;;1.40;99.90;;;;;;5091256;28;20490;-64
2023/01/26 02:13:00;;;;;;;30.47;9.00;;;1.30;99.90;;;;;;5074950;28;20039;-64
2023/01/26 02:15:29;;;;;;;37.08;9.18;;;1.30;99.90;;;;;;5083844;28;20059;-60
2023/01/26 02:18:02;;;;;;;32.42;8.23;;;1.30;99.90;;;;;;5106618;28;20491;-64
2023/01/26 02:21:00;;;;;;;45.33;9.55;;;1.20;99.90;;;;;;5072240;28;20043;-61
2023/01/26 02:23:34;;;;;;;37.38;8.98;;;1.10;99.90;;;;;;5086592;28;20051;-63
2023/01/26 02:26:17;;;;;;;25.65;8.02;;;1.20;99.90;;;;;;5098546;28;20039;-62
2023/01/26 02:28:46;;;;;;;25.50;7.70;;;1.10;99.90;;;;;;5074428;28;20044;-62
2023/01/26 02:31:14;;;;;;;39.17;8.27;;;1.10;99.90;;;;;;5091208;28;20044;-62
2023/01/26 02:33:42;;;;;;;24.15;8.30;;;1.10;99.90;;;;;;5091588;28;20044;-63
2023/01/26 02:36:19;;;;;;;29.48;9.18;;;1.00;99.90;;;;;;5074975;28;20108;-64
2023/01/26 02:39:11;;;;;;;36.83;9.38;;;1.00;99.90;;;;;;5096888;27;20039;-62
2023/01/26 02:44:28;;;;;;;33.45;9.30;;;1.00;99.90;;;;;;5073127;28;20043;-62
2023/01/26 02:46:55;;;;;;;35.17;8.68;;;0.90;99.90;;;;;;5096591;28;20486;-65
2023/01/26 02:52:10;;;;;;;27.30;9.00;;;0.90;99.90;;;;;;5094680;28;20059;-63
2023/01/26 02:57:25;;;;;;;45.65;10.88;;;0.90;99.90;;;;;;5112626;28;20137;-61
2023/01/26 02:59:52;;;;;;;64.97;12.93;;;0.90;99.90;;;;;;5094109;28;20040;-63
2023/01/26 03:02:21;;;;;;;59.33;10.95;;;0.90;99.90;;;;;;5112602;28;20046;-62
2023/01/26 03:04:49;;;;;;;57.17;11.90;;;0.90;99.90;;;;;;5094542;28;20035;-64
2023/01/26 03:07:17;;;;;;;66.05;11.63;;;0.90;99.90;;;;;;5093486;28;20051;-60
2023/01/26 03:09:44;;;;;;;45.20;10.10;;;1.00;99.90;;;;;;5112432;28;20048;-58
2023/01/26 03:12:12;;;;;;;30.33;10.93;;;1.00;99.90;;;;;;5093677;28;20470;-59
2023/01/26 03:14:40;;;;;;;38.55;11.82;;;0.90;99.90;;;;;;5092886;28;20058;-63
2023/01/26 03:17:08;;;;;;;34.65;9.95;;;1.00;99.90;;;;;;5121226;27;20051;-62
2023/01/26 03:27:58;;;;;;;41.05;11.25;;;0.90;99.90;;;;;;5094049;28;20046;-62
2023/01/26 03:30:25;;;;;;;107.78;13.27;;;0.80;99.90;;;;;;5093974;28;20088;-63
2023/01/26 03:32:53;;;;;;;57.55;13.13;;;0.80;99.90;;;;;;5093886;28;20039;-62
2023/01/26 03:35:21;;;;;;;50.80;11.23;;;0.80;99.90;;;;;;5094066;28;20482;-59
2023/01/26 03:37:53;;;;;;;46.10;12.77;;;0.80;99.90;;;;;;5094027;28;20043;-57
2023/01/26 03:57:28;;;;;;;56.95;13.55;;;1.10;99.90;;;;;;5093531;28;20051;-58
2023/01/26 03:59:56;;;;;;;48.22;15.27;;;1.10;99.90;;;;;;5093643;28;20051;-57
2023/01/26 04:08:22;;;;;;;53.80;12.15;;;1.20;99.90;;;;;;5093618;28;19920;-57
2023/01/26 04:10:56;;;;;;;72.55;13.15;;;1.30;99.90;;;;;;5073420;28;20395;-58
2023/01/26 04:21:52;;;;;;;96.53;14.40;;;1.40;99.90;;;;;;5111352;28;20050;-57
2023/01/26 04:24:21;;;;;;;88.20;13.23;;;1.50;99.90;;;;;;5093568;28;20046;-58
2023/01/26 04:26:56;;;;;;;103.00;13.40;;;1.50;99.90;;;;;;5093690;28;20056;-58
2023/01/26 04:29:33;;;;;;;87.88;13.90;;;1.50;99.90;;;;;;5111309;28;20063;-57
2023/01/26 04:32:01;;;;;;;60.13;11.93;;;1.50;99.90;;;;;;5093293;28;20043;-57
2023/01/26 04:34:28;;;;;;;52.63;10.52;;;1.60;99.90;;;;;;5093344;28;20425;-59
2023/01/26 04:36:57;;;;;;;101.53;13.75;;;1.40;99.90;;;;;;5093233;28;20042;-59
2023/01/26 04:39:33;;;;;;;112.38;12.85;;;1.40;99.90;;;;;;5093237;28;20055;-58
2023/01/26 04:42:00;;;;;;;105.03;12.27;;;1.40;99.90;;;;;;5110082;28;20052;-59
2023/01/26 04:44:33;;;;;;;131.35;13.45;;;1.40;99.90;;;;;;5093403;28;20048;-59
2023/01/26 04:47:02;;;;;;;130.05;13.00;;;1.40;99.90;;;;;;5101474;28;20047;-61
2023/01/26 04:49:29;;;;;;;94.30;13.50;;;1.40;99.90;;;;;;5118406;28;20048;-63
2023/01/26 04:51:57;;;;;;;91.22;12.90;;;1.40;99.90;;;;;;5093473;28;20048;-63
2023/01/26 04:54:26;;;;;;;74.55;12.98;;;1.40;99.90;;;;;;5093256;28;20036;-65
2023/01/26 04:56:53;;;;;;;37.17;10.43;;;1.40;99.90;;;;;;5093279;28;20039;-60
2023/01/26 04:59:24;;;;;;;44.47;10.50;;;1.30;99.90;;;;;;5092753;28;20039;-58
2023/01/26 05:01:56;;;;;;;29.50;10.55;;;1.40;99.90;;;;;;5092365;28;20058;-59
2023/01/26 05:04:24;;;;;;;26.67;9.55;;;1.40;99.90;;;;;;5090791;28;20062;-59
2023/01/26 05:06:53;;;;;;;26.58;9.00;;;1.30;99.90;;;;;;5073382;28;20399;-57
2023/01/26 05:09:23;;;;;;;40.38;11.13;;;1.40;99.90;;;;;;5087548;28;20040;-58
2023/01/26 05:15:13;;;;;;;36.08;10.27;;;1.30;99.90;;;;;;5114944;28;20406;-58
2023/01/26 05:17:58;;;;;;;30.08;9.25;;;1.20;99.90;;;;;;5146335;27;20039;-59
2023/01/26 05:20:44;;;;;;;39.55;10.45;;;1.20;99.90;;;;;;5094223;28;20040;-57
2023/01/26 05:23:17;;;;;;;35.75;10.30;;;1.10;99.90;;;;;;5076270;28;20047;-57
2023/01/26 05:26:04;;;;;;;28.52;9.73;;;1.10;99.90;;;;;;5094143;28;20044;-58
2023/01/26 05:28:41;;;;;;;32.83;9.07;;;1.10;99.90;;;;;;5081047;28;20051;-57
2023/01/26 05:31:09;;;;;;;30.50;9.32;;;1.10;99.90;;;;;;5092255;28;20043;-58
2023/01/26 05:33:37;;;;;;;22.10;9.93;;;1.00;99.90;;;;;;5092521;28;20506;-58
2023/01/26 05:36:07;;;;;;;32.47;9.57;;;1.00;99.90;;;;;;5092892;28;20040;-57
2023/01/26 05:38:35;;;;;;;33.38;8.60;;;1.00;99.90;;;;;;5092199;28;20056;-58
2023/01/26 05:41:05;;;;;;;33.55;10.38;;;1.10;99.90;;;;;;5093436;28;20040;-59
2023/01/26 05:43:42;;;;;;;30.42;10.38;;;1.10;99.90;;;;;;5092710;28;20051;-59
2023/01/26 05:46:19;;;;;;;36.83;10.23;;;1.20;99.90;;;;;;5094812;28;20036;-57
2023/01/26 05:48:46;;;;;;;27.73;9.70;;;1.20;99.90;;;;;;5089572;28;20047;-61
2023/01/26 05:51:14;;;;;;;34.95;10.32;;;1.30;99.90;;;;;;5090495;28;20047;-64
2023/01/26 05:53:42;;;;;;;29.10;9.13;;;1.40;99.90;;;;;;5089770;28;20051;-62
2023/01/26 05:56:09;;;;;;;46.35;10.75;;;1.40;99.90;;;;;;5089053;28;20051;-62
2023/01/26 05:58:42;;;;;;;31.17;9.68;;;1.50;99.90;;;;;;5097967;28;20055;-58
2023/01/26 06:01:10;;;;;;;33.60;8.55;;;1.50;99.90;;;;;;5089179;28;20052;-58
2023/01/26 06:03:47;;;;;;;33.65;9.82;;;1.60;99.90;;;;;;5071306;28;20040;-58
2023/01/26 06:06:14;;;;;;;28.65;9.18;;;1.70;99.90;;;;;;5100706;28;20041;-58
2023/01/26 06:08:52;;;;;;;35.63;8.70;;;1.70;99.90;;;;;;5091682;28;20043;-59
2023/01/26 06:11:32;;;;;;;35.17;10.07;;;1.70;99.90;;;;;;5088858;28;20040;-57
2023/01/26 06:14:29;;;;;;;38.53;13.02;;;1.70;99.90;;;;;;5070359;28;20061;-59
2023/01/26 06:16:58;;;;;;;32.72;9.18;;;1.80;99.90;;;;;;5082821;28;20044;-59
2023/01/26 06:19:26;;;;;;;30.30;9.93;;;1.80;99.90;;;;;;5083363;28;20048;-59
2023/01/26 06:22:01;;;;;;;25.98;8.48;;;1.90;99.90;;;;;;5085034;28;20047;-58
2023/01/26 06:24:29;;;;;;;23.58;10.25;;;1.90;99.90;;;;;;5089963;28;20048;-59
2023/01/26 06:26:58;;;;;;;29.25;9.20;;;1.90;99.90;;;;;;5081171;28;20381;-59
2023/01/26 06:29:26;;;;;;;25.98;7.85;;;2.00;99.90;;;;;;5089220;28;20043;-59
2023/01/26 06:31:54;;;;;;;29.85;8.25;;;2.00;99.90;;;;;;5087284;28;20040;-60
2023/01/26 06:34:22;;;;;;;28.42;9.07;;;2.00;99.90;;;;;;5083143;28;20052;-59
2023/01/26 06:36:50;;;;;;;25.27;9.60;;;2.00;99.90;;;;;;5066561;28;20036;-59
2023/01/26 06:39:25;;;;;;;37.35;8.93;;;1.90;99.90;;;;;;5119586;27;20052;-60
2023/01/26 06:41:53;;;;;;;30.23;9.52;;;2.00;99.90;;;;;;5122263;27;20067;-58
2023/01/26 06:44:21;;;;;;;29.85;8.02;;;2.00;99.90;;;;;;5090047;28;20474;-58
2023/01/26 06:46:52;;;;;;;27.60;9.75;;;2.00;99.90;;;;;;5095456;28;20051;-58
2023/01/26 06:49:20;;;;;;;30.95;9.82;;;2.00;99.90;;;;;;5087303;28;20047;-59
2023/01/26 06:52:04;;;;;;;34.83;8.85;;;2.00;99.90;;;;;;5087570;28;20533;-59
2023/01/26 06:54:42;;;;;;;26.60;9.65;;;2.10;99.90;;;;;;5089621;28;20824;-57
2023/01/26 06:57:26;;;;;;;30.02;8.68;;;2.00;99.90;;;;;;5089441;28;20507;-59
2023/01/26 07:00:10;;;;;;;23.63;8.00;;;2.00;99.90;;;;;;5089389;28;20036;-57
2023/01/26 07:02:52;;;;;;;27.25;8.73;;;2.00;99.90;;;;;;5093384;28;20048;-58
2023/01/26 07:05:20;;;;;;;25.90;8.60;;;2.10;99.90;;;;;;5067262;28;20617;-57
2023/01/26 07:07:48;;;;;;;35.30;9.05;;;2.10;99.90;;;;;;5075926;28;20601;-57
2023/01/26 07:10:15;;;;;;;27.85;8.50;;;2.10;99.90;;;;;;5106737;28;20070;-58
2023/01/26 07:12:45;;;;;;;24.38;8.73;;;2.10;99.90;;;;;;5102904;28;20475;-61
2023/01/26 07:15:12;;;;;;;26.42;8.65;;;2.10;99.90;;;;;;5090360;28;20051;-62
2023/01/26 07:17:40;;;;;;;36.03;8.82;;;2.10;99.90;;;;;;5103773;28;20035;-62
2023/01/26 07:20:09;;;;;;;24.27;8.07;;;2.10;99.90;;;;;;5085747;28;20050;-62
2023/01/26 07:22:38;;;;;;;24.08;7.25;;;2.10;99.90;;;;;;5088931;28;20044;-63
2023/01/26 07:25:07;;;;;;;25.08;7.57;;;2.10;99.90;;;;;;5090256;28;20050;-64
2023/01/26 07:27:36;;;;;;;28.85;6.95;;;2.20;99.90;;;;;;5090330;28;20052;-58
2023/01/26 07:30:04;;;;;;;16.83;6.75;;;2.20;99.90;;;;;;5089462;28;20052;-59
2023/01/26 07:32:32;;;;;;;21.63;6.20;;;2.20;99.90;;;;;;5087220;28;20324;-57
2023/01/26 07:35:00;;;;;;;22.77;7.00;;;2.20;99.90;;;;;;5069708;28;20169;-57
2023/01/26 07:37:29;;;;;;;22.02;7.15;;;2.20;99.90;;;;;;5075174;28;20047;-59
2023/01/26 07:39:56;;;;;;;22.98;6.65;;;2.10;99.90;;;;;;5105866;28;20466;-61
2023/01/26 07:42:24;;;;;;;20.65;7.40;;;2.00;99.90;;;;;;5089547;28;20044;-63
2023/01/26 07:45:04;;;;;;;30.65;7.40;;;2.00;99.90;;;;;;5088905;28;20048;-63
2023/01/26 07:47:32;;;;;;;25.15;7.40;;;2.00;99.90;;;;;;5095417;28;20048;-61
2023/01/26 07:50:00;;;;;;;17.73;6.50;;;2.00;99.90;;;;;;5071508;28;20045;-60
2023/01/26 07:52:28;;;;;;;22.02;7.38;;;2.00;99.90;;;;;;5088004;28;20040;-61
2023/01/26 07:54:55;;;;;;;28.85;6.60;;;2.00;99.90;;;;;;5089440;28;20048;-62
2023/01/26 07:57:23;;;;;;;20.92;5.95;;;1.90;99.90;;;;;;5089564;28;20047;-58
2023/01/26 07:59:51;;;;;;;19.58;6.50;;;1.80;99.90;;;;;;5089711;28;20487;-58
2023/01/26 08:02:22;;;;;;;25.48;7.25;;;1.80;99.90;;;;;;5091074;28;20055;-56
2023/01/26 08:04:49;;;;;;;26.73;6.78;;;1.80;99.90;;;;;;5076753;28;20044;-58
2023/01/26 08:07:17;;;;;;;23.42;7.22;;;1.70;99.90;;;;;;5070954;28;20051;-57
2023/01/26 08:09:45;;;;;;;20.85;6.95;;;1.80;99.90;;;;;;5108503;28;20498;-58
2023/01/26 08:12:13;;;;;;;23.80;6.97;;;1.80;99.90;;;;;;5106628;28;20044;-58
2023/01/26 08:14:41;;;;;;;21.27;6.95;;;1.80;99.90;;;;;;5089602;28;20418;-58
2023/01/26 08:17:16;;;;;;;23.00;6.97;;;2.00;99.90;;;;;;5098362;28;20055;-58
2023/01/26 08:19:45;;;;;;;24.55;7.18;;;1.90;99.90;;;;;;5083918;28;20584;-58
2023/01/26 08:22:13;;;;;;;28.48;7.45;;;2.00;99.90;;;;;;5089510;28;20043;-58
2023/01/26 08:24:41;;;;;;;22.73;7.22;;;2.10;99.90;;;;;;5089507;28;20040;-63
2023/01/26 08:27:08;;;;;;;18.33;6.78;;;2.20;99.90;;;;;;5089459;28;20059;-57
2023/01/26 08:29:36;;;;;;;23.58;6.15;;;2.20;99.90;;;;;;5089660;28;20541;-64
2023/01/26 08:32:13;;;;;;;18.58;6.10;;;2.20;99.90;;;;;;5091089;28;20610;-59
2023/01/26 08:34:41;;;;;;;15.65;5.53;;;2.30;99.90;;;;;;5088806;28;20071;-58
2023/01/26 08:37:11;;;;;;;18.88;5.70;;;2.30;99.90;;;;;;5079075;28;20316;-59
2023/01/26 08:39:39;;;;;;;13.77;5.03;;;2.40;99.90;;;;;;5100246;28;20044;-59
2023/01/26 08:42:07;;;;;;;18.63;5.65;;;2.40;99.90;;;;;;5102784;28;20044;-62
2023/01/26 08:44:34;;;;;;;19.60;5.45;;;2.50;99.90;;;;;;5108379;28;20059;-58
2023/01/26 08:47:02;;;;;;;28.30;6.07;;;2.50;99.90;;;;;;5101334;28;20047;-58
2023/01/26 08:49:32;;;;;;;16.83;5.68;;;2.50;99.90;;;;;;5085236;28;20059;-58
2023/01/26 08:51:59;;;;;;;20.77;5.18;;;2.60;99.90;;;;;;5073914;28;20040;-58
2023/01/26 08:54:27;;;;;;;16.33;5.28;;;2.60;99.90;;;;;;5093348;28;20044;-64
2023/01/26 08:56:56;;;;;;;18.83;5.35;;;2.70;99.90;;;;;;5093416;28;20055;-58
2023/01/26 08:59:26;;;;;;;18.25;6.10;;;2.70;99.90;;;;;;5092322;28;20394;-58
2023/01/26 09:01:54;;;;;;;10.93;4.85;;;2.70;99.90;;;;;;5092809;28;20055;-57
2023/01/26 09:04:22;;;;;;;21.27;5.57;;;2.70;99.90;;;;;;5101305;28;20048;-62
2023/01/26 09:06:50;;;;;;;14.77;5.30;;;2.70;99.90;;;;;;5072729;28;20045;-59
2023/01/26 09:09:18;;;;;;;14.23;4.95;;;2.80;99.90;;;;;;5108728;28;20040;-61
2023/01/26 09:11:48;;;;;;;22.50;5.18;;;2.80;99.90;;;;;;5111305;28;20050;-59
2023/01/26 09:14:21;;;;;;;13.23;4.97;;;2.80;99.90;;;;;;5092844;28;20064;-60
2023/01/26 09:16:49;;;;;;;14.20;4.00;;;2.90;99.90;;;;;;5099111;28;20070;-57
2023/01/26 09:19:17;;;;;;;10.43;4.07;;;2.90;99.90;;;;;;5090527;28;20037;-61
2023/01/26 09:21:44;;;;;;;11.82;4.05;;;2.90;99.90;;;;;;5072462;28;20051;-60
2023/01/26 09:24:13;;;;;;;10.43;4.00;;;3.00;99.90;;;;;;5091603;28;20044;-61
2023/01/26 09:26:44;;;;;;;17.65;4.38;;;2.90;99.90;;;;;;5092424;28;20052;-64
2023/01/26 09:29:11;;;;;;;14.02;3.90;;;3.00;99.90;;;;;;5092203;28;20044;-63
2023/01/26 09:31:39;;;;;;;14.43;3.38;;;3.00;99.90;;;;;;5092248;28;20040;-65
2023/01/26 09:34:07;;;;;;;14.82;3.42;;;3.00;99.90;;;;;;5090441;28;20055;-61
2023/01/26 09:36:35;;;;;;;14.82;3.53;;;3.00;99.90;;;;;;5073620;28;20045;-59
2023/01/26 09:39:02;;;;;;;20.20;3.97;;;3.00;99.90;;;;;;5106196;28;20052;-58
2023/01/26 09:41:54;;;;;;;17.35;4.43;;;3.00;99.90;;;;;;5090218;28;20048;-59
2023/01/26 09:44:25;;;;;;;21.90;4.17;;;3.00;99.90;;;;;;5112554;28;20054;-66
2023/01/26 09:47:05;;;;;;;6.20;2.90;;;3.00;99.90;;;;;;5110903;28;20528;-64
2023/01/26 09:50:08;;;;;;;11.48;3.40;;;3.00;99.90;;;;;;5084581;28;20059;-59
2023/01/26 09:52:49;;;;;;;14.43;3.85;;;3.10;99.90;;;;;;5082495;28;20048;-64
2023/01/26 09:55:20;;;;;;;18.13;4.15;;;3.10;99.90;;;;;;5109552;28;20040;-59
2023/01/26 09:58:06;;;;;;;13.20;2.97;;;3.20;99.90;;;;;;5095471;28;20082;-64
2023/01/26 10:00:46;;;;;;;13.30;2.92;;;3.20;99.90;;;;;;5070433;28;20037;-62
2023/01/26 10:03:37;;;;;;;8.75;2.92;;;3.30;99.90;;;;;;5090325;28;20062;-58
2023/01/26 10:06:27;;;;;;;8.13;3.15;;;3.40;99.90;;;;;;5093002;28;20050;-57
2023/01/26 10:09:26;;;;;;;8.45;3.28;;;3.50;99.90;;;;;;5093239;28;20427;-57
2023/01/26 10:11:59;;;;;;;16.17;3.03;;;3.60;99.90;;;;;;5090416;28;20415;-59
2023/01/26 10:14:39;;;;;;;7.70;2.67;;;3.70;99.90;;;;;;5091302;28;20059;-59
2023/01/26 10:17:16;;;;;;;9.52;2.30;;;3.80;99.90;;;;;;5100583;28;20063;-59
2023/01/26 10:19:51;;;;;;;12.13;3.05;;;3.90;99.90;;;;;;5089291;28;20372;-63
2023/01/26 10:22:22;;;;;;;19.00;3.47;;;3.90;99.90;;;;;;5090242;28;20069;-64
2023/01/26 10:24:51;;;;;;;4.57;2.10;;;4.00;99.90;;;;;;5091462;28;20495;-65
2023/01/26 10:27:19;;;;;;;8.77;2.72;;;4.00;99.90;;;;;;5092217;28;20044;-65
2023/01/26 10:29:47;;;;;;;10.10;2.90;;;4.10;99.90;;;;;;5118307;27;20405;-58
2023/01/26 10:32:17;;;;;;;9.60;3.20;;;4.10;99.90;;;;;;5095131;28;20055;-61
2023/01/26 10:34:47;;;;;;;12.07;2.90;;;4.20;99.90;;;;;;5109731;28;20043;-60
2023/01/26 10:37:25;;;;;;;8.75;3.05;;;4.30;99.90;;;;;;5091783;28;20048;-58
2023/01/26 10:40:06;;;;;;;9.05;2.83;;;4.40;99.90;;;;;;5124128;27;20046;-63
2023/01/26 10:42:35;;;;;;;10.77;2.85;;;4.40;99.90;;;;;;5114928;27;20054;-65
2023/01/26 10:45:24;;;;;;;10.05;3.72;;;4.40;99.90;;;;;;5111747;28;20367;-64
2023/01/26 10:48:17;;;;;;;9.70;2.83;;;4.70;99.90;;;;;;5120490;27;20062;-64
2023/01/26 10:50:49;;;;;;;20.48;3.47;;;4.70;99.90;;;;;;5089334;28;20043;-64
2023/01/26 10:53:23;;;;;;;11.80;3.08;;;4.80;99.90;;;;;;5122263;27;20043;-59
2023/01/26 10:56:03;;;;;;;10.05;3.33;;;5.00;99.90;;;;;;5131773;27;20046;-58
2023/01/26 10:58:49;;;;;;;9.30;3.08;;;5.20;99.90;;;;;;5119724;27;20047;-58
2023/01/26 11:01:21;;;;;;;9.40;3.30;;;5.30;99.90;;;;;;5091743;28;20043;-57
2023/01/26 11:04:15;;;;;;;11.10;3.35;;;5.50;99.90;;;;;;5110361;28;20039;-58
2023/01/26 11:06:43;;;;;;;8.55;3.17;;;5.50;99.90;;;;;;5090520;28;20071;-58
2023/01/26 11:09:19;;;;;;;11.57;3.40;;;5.50;99.90;;;;;;5114422;27;20043;-58
2023/01/26 11:11:59;;;;;;;7.35;2.85;;;5.50;99.90;;;;;;5126548;27;20042;-58
2023/01/26 11:14:30;;;;;;;11.57;2.83;;;5.60;99.90;;;;;;5110702;28;20051;-59
2023/01/26 11:17:21;;;;;;;11.50;3.00;;;5.60;99.90;;;;;;5110803;28;20051;-60
2023/01/26 11:19:54;;;;;;;9.07;2.90;;;5.60;99.90;;;;;;5090028;28;20055;-63
2023/01/26 11:22:32;;;;;;;14.80;2.88;;;5.70;99.90;;;;;;5093705;28;20063;-57
2023/01/26 11:25:19;;;;;;;14.68;3.25;;;5.80;99.90;;;;;;5109724;28;20050;-61
2023/01/26 11:28:12;;;;;;;15.90;3.70;;;5.90;99.90;;;;;;5110270;28;20062;-56
2023/01/26 11:31:09;;;;;;;9.40;2.88;;;6.00;99.90;;;;;;5110517;28;20048;-58
2023/01/26 11:34:21;;;;;;;9.80;3.25;;;6.30;99.90;;;;;;5110090;28;20044;-58
2023/01/26 11:37:50;;;;;;;7.53;2.42;;;6.60;99.90;;;;;;5107090;28;20394;-57
2023/01/26 11:40:42;;;;;;;11.10;3.35;;;6.60;99.90;;;;;;5023717;28;20053;-57
2023/01/26 11:43:48;;;;;;;15.35;3.13;;;6.80;99.90;;;;;;5101095;27;20047;-58
2023/01/26 11:46:25;;;;;;;13.52;2.60;;;7.10;99.90;;;;;;5095269;28;20051;-56
2023/01/26 11:49:16;;;;;;;10.93;2.30;;;7.30;99.90;;;;;;5108986;28;20048;-55
2023/01/26 11:52:01;;;;;;;15.57;2.83;;;7.60;99.90;;;;;;5072189;28;20047;-61
2023/01/26 11:54:35;;;;;;;7.25;2.30;;;7.80;99.90;;;;;;5101643;28;20052;-57
2023/01/26 11:57:11;;;;;;;12.02;2.35;;;8.10;99.90;;;;;;5110382;28;20054;-57
2023/01/26 11:59:48;;;;;;;7.68;2.58;;;8.40;99.90;;;;;;5089494;28;20055;-57
2023/01/26 12:02:36;;;;;;;10.25;2.45;;;8.50;99.90;;;;;;5096264;28;20059;-57
2023/01/26 12:05:27;;;;;;;8.10;2.28;;;9.10;99.90;;;;;;5130366;28;20058;-62
2023/01/26 12:08:10;;;;;;;7.78;2.20;;;9.10;99.90;;;;;;5095713;28;20090;-56
2023/01/26 12:10:40;;;;;;;5.35;2.20;;;8.90;99.90;;;;;;5119708;28;20047;-56
2023/01/26 12:13:15;;;;;;;;;;;8.70;99.90;;;;;;5110391;28;20050;-57
2023/01/26 12:15:49;;;;;;;6.00;1.58;;;8.80;99.90;;;;;;5110358;28;20408;-58
2023/01/26 12:18:23;;;;;;;9.20;2.03;;;9.00;99.90;;;;;;5114078;28;20418;-60
2023/01/26 12:21:10;;;;;;;9.57;2.13;;;9.30;99.90;;;;;;5091626;28;20066;-57
2023/01/26 12:23:43;;;;;;;3.80;1.85;;;9.50;99.90;;;;;;5107282;28;20051;-58
2023/01/26 12:26:15;;;;;;;9.43;2.10;;;9.80;99.90;;;;;;5114105;28;20051;-61
2023/01/26 12:29:08;;;;;;;6.85;1.48;;;9.90;99.90;;;;;;5126795;27;20559;-63
2023/01/26 12:31:52;;;;;;;7.60;1.67;;;10.20;99.90;;;;;;5134891;27;20050;-59
2023/01/26 12:34:28;;;;;;;7.40;1.88;;;10.60;99.90;;;;;;5114067;27;20051;-59
2023/01/26 12:37:01;;;;;;;8.30;2.63;;;10.70;99.90;;;;;;5112648;28;20052;-59
2023/01/26 12:39:36;;;;;;;6.20;1.42;;;10.70;99.90;;;;;;5132820;27;20047;-58
2023/01/26 12:42:30;;;;;;;6.63;1.65;;;11.00;99.90;;;;;;5122501;27;20046;-59
2023/01/26 12:45:00;;;;;;;8.38;2.03;;;11.50;99.90;;;;;;5113812;28;20050;-58
2023/01/26 12:47:43;;;;;;;5.07;1.08;;;12.00;99.90;;;;;;5093973;28;20043;-58
2023/01/26 12:50:39;;;;;;;4.82;1.33;;;12.10;99.90;;;;;;5113488;28;20044;-57
2023/01/26 12:53:31;;;;;;;5.68;1.63;;;12.20;99.90;;;;;;5111695;27;20050;-64
2023/01/26 12:56:09;;;;;;;7.55;1.30;;;12.30;99.90;;;;;;5134175;27;20398;-63
2023/01/26 12:58:41;;;;;;;7.50;1.48;;;12.50;99.90;;;;;;5125581;27;20048;-65
2023/01/26 13:01:12;;;;;;;4.78;1.70;;;13.00;99.90;;;;;;5110925;28;20044;-60
2023/01/26 13:03:44;;;;;;;3.38;1.20;;;12.90;99.90;;;;;;5109595;28;20229;-57
2023/01/26 13:06:12;;;;;;;6.38;0.90;;;13.10;99.90;;;;;;5107673;27;20044;-59
2023/01/26 13:08:56;;;;;;;11.23;1.58;;;13.00;99.90;;;;;;5107198;27;20047;-58
2023/01/26 13:11:50;;;;;;;5.97;1.25;;;13.00;99.90;;;;;;5114146;27;20055;-58
2023/01/26 13:14:42;;;;;;;5.30;1.60;;;12.80;99.90;;;;;;5112900;28;20042;-58
2023/01/26 13:17:16;;;;;;;8.52;1.63;;;12.90;99.90;;;;;;5113264;28;20051;-58
2023/01/26 13:19:43;;;;;;;8.38;1.92;;;13.10;99.90;;;;;;5074790;28;20047;-58
2023/01/26 13:22:18;;;;;;;8.82;1.63;;;12.80;99.90;;;;;;5096693;27;20044;-59
2023/01/26 13:24:57;;;;;;;7.40;1.52;;;11.70;99.90;;;;;;5113016;28;20475;-58
2023/01/26 13:27:38;;;;;;;6.53;1.20;;;11.60;99.90;;;;;;5111680;28;20054;-57
2023/01/26 13:30:42;;;;;;;9.20;1.52;;;10.50;99.90;;;;;;5112247;28;20048;-59
2023/01/26 13:33:17;;;;;;;4.13;1.17;;;10.30;99.90;;;;;;5079960;28;20060;-57
2023/01/26 13:35:47;;;;;;;8.02;1.38;;;9.80;99.90;;;;;;5111512;28;20051;-56
2023/01/26 13:38:37;;;;;;;8.05;1.98;;;9.40;99.90;;;;;;5101399;28;20040;-56
2023/01/26 13:41:09;;;;;;;7.88;1.08;;;9.00;99.90;;;;;;5112566;28;20043;-57
2023/01/26 13:43:43;;;;;;;15.20;1.35;;;8.70;99.90;;;;;;5112795;27;20043;-57
2023/01/26 13:46:16;;;;;;;3.40;1.25;;;8.40;99.90;;;;;;5112041;28;20059;-57
2023/01/26 13:48:45;;;;;;;8.77;1.38;;;8.30;99.90;;;;;;5093937;28;20043;-57
2023/01/26 13:51:34;;;;;;;12.10;2.25;;;8.10;99.90;;;;;;5111304;28;20389;-57
2023/01/26 13:54:11;;;;;;;6.10;1.17;;;8.00;99.90;;;;;;5111901;28;20055;-59
2023/01/26 13:56:59;;;;;;;16.65;1.95;;;7.90;99.90;;;;;;5094011;28;20062;-57
2023/01/26 13:59:27;;;;;;;5.07;1.30;;;7.90;99.90;;;;;;5112099;28;20040;-58
2023/01/26 14:01:56;;;;;;;6.80;2.03;;;7.80;99.90;;;;;;5094154;28;20048;-58
2023/01/26 14:04:26;;;;;;;9.85;1.80;;;7.80;99.90;;;;;;5115971;27;20043;-58
2023/01/26 14:06:57;;;;;;;6.30;1.30;;;7.70;99.90;;;;;;5105956;28;20047;-56
2023/01/26 14:09:28;;;;;;;10.93;1.73;;;7.70;99.90;;;;;;5118690;27;20051;-58
2023/01/26 14:12:01;;;;;;;6.65;1.33;;;7.70;99.90;;;;;;5122618;27;20039;-64
2023/01/26 14:14:32;;;;;;;10.15;1.48;;;7.70;99.90;;;;;;5091645;28;20048;-59